Time;durP1;ratioP1;P1;durP2;ratioP2;P2;SDS_P1;SDS_P2;PMS_P1;PMS_P2;Temp;Humidity;BMP_temperature;BMP_pressure;BME280_temperature;BME280_humidity;BME280_pressure;Samples;Min_cycle;Max_cycle;Signal;HPM_P1;HPM_P2
2023/09/13 00:00:54;;;;;;;1.70;1.10;;;;;;;;;;5048978;28;20048;-71
2023/09/13 00:03:20;;;;;;;2.67;1.30;;;;;;;;;;5048872;28;20045;-71
2023/09/13 00:05:47;;;;;;;1.60;1.00;;;;;;;;;;5049106;28;20049;-73
2023/09/13 00:08:14;;;;;;;1.98;1.10;;;;;;;;;;5048701;28;20106;-70
2023/09/13 00:10:44;;;;;;;1.98;1.20;;;;;;;;;;5048517;28;20605;-70
2023/09/13 00:13:12;;;;;;;3.13;1.50;;;;;;;;;;5049021;28;20052;-71
2023/09/13 00:15:45;;;;;;;2.35;1.38;;;;;;;;;;5048529;28;20111;-72
2023/09/13 00:18:15;;;;;;;2.47;1.17;;;;;;;;;;5049026;28;20073;-71
2023/09/13 00:20:44;;;;;;;4.13;1.60;;;;;;;;;;5048689;28;20196;-72
2023/09/13 00:23:11;;;;;;;1.27;1.00;;;;;;;;;;5048872;28;20059;-71
2023/09/13 00:25:37;;;;;;;2.17;1.30;;;;;;;;;;5048509;28;20928;-72
2023/09/13 00:28:04;;;;;;;3.60;1.50;;;;;;;;;;5048764;28;20536;-70
2023/09/13 00:30:32;;;;;;;3.35;1.23;;;;;;;;;;5063906;28;20152;-71
2023/09/13 00:32:58;;;;;;;3.00;1.50;;;;;;;;;;5048680;28;20045;-71
2023/09/13 00:35:26;;;;;;;2.85;1.30;;;;;;;;;;5048350;28;20639;-71
2023/09/13 00:37:52;;;;;;;2.38;1.20;;;;;;;;;;5048572;28;20049;-72
2023/09/13 00:40:19;;;;;;;4.85;1.23;;;;;;;;;;5048828;28;20049;-71
2023/09/13 00:42:46;;;;;;;2.17;1.23;;;;;;;;;;5050287;28;20045;-72
2023/09/13 00:45:13;;;;;;;4.38;1.38;;;;;;;;;;5052734;28;20448;-70
2023/09/13 00:47:41;;;;;;;2.20;1.10;;;;;;;;;;5052592;28;20052;-71
2023/09/13 00:50:11;;;;;;;5.47;1.42;;;;;;;;;;5052213;28;20056;-70
2023/09/13 00:52:39;;;;;;;1.97;1.20;;;;;;;;;;5051782;28;20060;-69
2023/09/13 00:55:07;;;;;;;2.78;1.38;;;;;;;;;;5052139;28;20763;-72
2023/09/13 00:57:35;;;;;;;2.47;1.30;;;;;;;;;;5051903;28;20057;-71
2023/09/13 01:00:09;;;;;;;2.13;1.27;;;;;;;;;;5052387;28;20250;-72
2023/09/13 01:02:38;;;;;;;1.30;1.02;;;;;;;;;;5051613;28;20140;-71
2023/09/13 01:05:08;;;;;;;2.53;1.33;;;;;;;;;;5052175;28;20085;-70
2023/09/13 01:07:38;;;;;;;3.72;1.20;;;;;;;;;;5051752;28;20049;-73
2023/09/13 01:10:06;;;;;;;4.47;1.40;;;;;;;;;;5051745;28;20045;-71
2023/09/13 01:12:33;;;;;;;2.97;1.60;;;;;;;;;;5051648;28;20543;-70
2023/09/13 01:15:00;;;;;;;2.42;1.17;;;;;;;;;;5051885;28;20056;-70
2023/09/13 01:18:12;;;;;;;2.20;1.17;;;;;;;;;;5051600;28;20390;-70
2023/09/13 01:21:12;;;;;;;2.92;1.48;;;;;;;;;;5051857;28;20048;-70
2023/09/13 01:24:16;;;;;;;2.80;1.30;;;;;;;;;;5051662;28;20049;-70
2023/09/13 01:27:16;;;;;;;3.25;1.58;;;;;;;;;;5051300;28;20448;-71
2023/09/13 01:29:44;;;;;;;3.47;1.40;;;;;;;;;;5051413;28;20421;-71
2023/09/13 01:32:11;;;;;;;4.38;1.45;;;;;;;;;;5051068;28;20044;-71
2023/09/13 01:34:38;;;;;;;2.95;1.48;;;;;;;;;;5051818;28;20103;-71
2023/09/13 01:37:05;;;;;;;3.13;1.63;;;;;;;;;;5051401;28;20156;-71
2023/09/13 01:39:31;;;;;;;3.53;1.63;;;;;;;;;;5051222;28;20049;-71
2023/09/13 01:42:10;;;;;;;3.67;1.73;;;;;;;;;;5051113;28;20504;-71
2023/09/13 01:44:40;;;;;;;2.75;1.60;;;;;;;;;;5051244;28;20521;-70
2023/09/13 01:47:08;;;;;;;6.13;1.80;;;;;;;;;;5050984;28;20501;-72
2023/09/13 01:49:39;;;;;;;5.53;1.90;;;;;;;;;;5051022;28;20199;-73
2023/09/13 01:52:06;;;;;;;4.57;1.75;;;;;;;;;;5050840;28;20045;-73
2023/09/13 01:54:34;;;;;;;4.53;2.05;;;;;;;;;;5050742;28;20045;-73
2023/09/13 01:57:01;;;;;;;6.25;1.63;;;;;;;;;;5051412;28;20107;-71
2023/09/13 01:59:28;;;;;;;3.85;1.50;;;;;;;;;;5051262;28;20123;-74
2023/09/13 02:01:54;;;;;;;2.72;1.50;;;;;;;;;;5050444;28;20484;-74
2023/09/13 02:04:21;;;;;;;3.38;1.60;;;;;;;;;;5050906;28;20493;-71
2023/09/13 02:06:48;;;;;;;2.95;1.65;;;;;;;;;;5050927;28;20128;-71
2023/09/13 02:09:16;;;;;;;2.85;1.50;;;;;;;;;;5050754;28;20079;-71
2023/09/13 02:11:43;;;;;;;2.92;1.80;;;;;;;;;;5051074;28;20048;-72
2023/09/13 02:14:09;;;;;;;6.38;1.90;;;;;;;;;;5050556;28;20045;-70
2023/09/13 02:16:36;;;;;;;4.13;1.50;;;;;;;;;;5051087;28;20072;-72
2023/09/13 02:19:04;;;;;;;2.97;1.40;;;;;;;;;;5050489;28;20048;-70
2023/09/13 02:21:31;;;;;;;3.67;1.63;;;;;;;;;;5050809;28;20051;-71
2023/09/13 02:23:58;;;;;;;2.28;1.52;;;;;;;;;;5050300;28;20041;-70
2023/09/13 02:26:26;;;;;;;2.67;1.60;;;;;;;;;;5051243;28;20115;-71
2023/09/13 02:28:53;;;;;;;3.65;1.60;;;;;;;;;;5050385;28;20064;-71
2023/09/13 02:31:24;;;;;;;2.25;1.48;;;;;;;;;;5050779;28;20053;-72
2023/09/13 02:33:52;;;;;;;2.88;1.73;;;;;;;;;;5050155;28;20045;-73
2023/09/13 02:36:19;;;;;;;5.80;1.70;;;;;;;;;;5050495;28;20045;-71
2023/09/13 02:38:46;;;;;;;2.90;1.63;;;;;;;;;;5049031;28;20056;-71
2023/09/13 02:41:12;;;;;;;2.97;1.60;;;;;;;;;;5050536;28;20057;-71
2023/09/13 02:43:42;;;;;;;4.22;1.83;;;;;;;;;;5049751;28;20416;-70
2023/09/13 02:46:09;;;;;;;6.22;1.70;;;;;;;;;;5050179;28;20427;-71
2023/09/13 02:48:36;;;;;;;4.03;1.70;;;;;;;;;;5050091;28;20045;-70
2023/09/13 02:51:03;;;;;;;2.55;1.63;;;;;;;;;;5050426;28;20053;-71
2023/09/13 02:53:31;;;;;;;3.58;1.77;;;;;;;;;;5049591;28;20040;-70
2023/09/13 02:56:07;;;;;;;2.70;1.60;;;;;;;;;;5049916;28;20049;-71
2023/09/13 02:58:34;;;;;;;3.17;1.60;;;;;;;;;;5049600;28;20075;-71
2023/09/13 03:01:03;;;;;;;3.92;1.67;;;;;;;;;;5050082;28;20055;-72
2023/09/13 03:03:32;;;;;;;4.15;1.73;;;;;;;;;;5049913;28;20091;-72
2023/09/13 03:06:18;;;;;;;3.72;2.00;;;;;;;;;;5049558;28;20064;-70
2023/09/13 03:08:44;;;;;;;3.22;2.05;;;;;;;;;;5049450;28;20401;-70
2023/09/13 03:11:13;;;;;;;3.38;2.00;;;;;;;;;;5050006;28;20053;-73
2023/09/13 03:13:40;;;;;;;3.13;1.88;;;;;;;;;;5049561;28;20041;-71
2023/09/13 03:16:12;;;;;;;3.65;2.20;;;;;;;;;;5049777;28;20251;-72
2023/09/13 03:18:39;;;;;;;4.85;2.03;;;;;;;;;;5049324;28;20045;-71
2023/09/13 03:21:08;;;;;;;3.85;1.90;;;;;;;;;;5049753;28;20634;-70
2023/09/13 03:23:37;;;;;;;3.38;2.03;;;;;;;;;;5049184;28;20053;-72
2023/09/13 03:26:21;;;;;;;4.55;2.30;;;;;;;;;;5049976;28;20135;-70
2023/09/13 03:28:53;;;;;;;3.30;1.90;;;;;;;;;;5049286;28;20653;-71
2023/09/13 03:31:22;;;;;;;5.32;2.30;;;;;;;;;;5049614;28;20056;-72
2023/09/13 03:33:50;;;;;;;3.00;1.83;;;;;;;;;;5048875;28;20170;-71
2023/09/13 03:36:17;;;;;;;5.05;2.38;;;;;;;;;;5049285;28;20609;-73
2023/09/13 03:38:47;;;;;;;3.35;2.20;;;;;;;;;;5049007;28;20060;-71
2023/09/13 03:41:19;;;;;;;4.33;2.37;;;;;;;;;;5049306;28;20049;-71
2023/09/13 03:43:46;;;;;;;4.05;2.08;;;;;;;;;;5049173;28;20095;-71
2023/09/13 03:46:13;;;;;;;3.58;1.85;;;;;;;;;;5049367;28;20120;-71
2023/09/13 03:48:41;;;;;;;4.78;2.30;;;;;;;;;;5048957;28;20045;-71
2023/09/13 03:51:08;;;;;;;5.20;2.10;;;;;;;;;;5049216;28;20045;-73
2023/09/13 03:53:35;;;;;;;5.43;2.40;;;;;;;;;;5048549;28;20471;-71
2023/09/13 03:56:03;;;;;;;4.38;2.20;;;;;;;;;;5049181;28;20045;-71
2023/09/13 03:58:31;;;;;;;4.05;2.10;;;;;;;;;;5049176;28;20056;-72
2023/09/13 04:00:58;;;;;;;3.05;2.10;;;;;;;;;;5049255;28;20056;-71
2023/09/13 04:03:26;;;;;;;4.53;2.40;;;;;;;;;;5048764;28;20053;-71
2023/09/13 04:05:55;;;;;;;4.38;2.38;;;;;;;;;;5049450;28;20056;-72
2023/09/13 04:08:22;;;;;;;5.35;2.03;;;;;;;;;;5048819;28;20045;-70
2023/09/13 04:10:49;;;;;;;3.35;2.20;;;;;;;;;;5048764;28;20065;-73
2023/09/13 04:13:16;;;;;;;3.67;2.10;;;;;;;;;;5048925;28;20076;-70
2023/09/13 04:15:44;;;;;;;2.67;2.03;;;;;;;;;;5049096;28;20555;-71
2023/09/13 04:18:12;;;;;;;5.03;2.13;;;;;;;;;;5053150;28;20041;-73
2023/09/13 04:20:41;;;;;;;3.90;2.00;;;;;;;;;;5053035;28;20094;-71
2023/09/13 04:23:08;;;;;;;4.00;2.30;;;;;;;;;;5053004;28;20052;-71
2023/09/13 04:25:38;;;;;;;3.28;2.30;;;;;;;;;;5052492;28;20060;-75
2023/09/13 04:28:05;;;;;;;3.78;2.08;;;;;;;;;;5052642;28;20709;-72
2023/09/13 04:30:34;;;;;;;3.78;2.30;;;;;;;;;;5052813;28;20049;-71
2023/09/13 04:33:05;;;;;;;4.57;2.38;;;;;;;;;;5052882;28;20294;-71
2023/09/13 04:35:33;;;;;;;3.35;2.03;;;;;;;;;;5052929;28;20119;-72
2023/09/13 04:37:59;;;;;;;6.25;2.33;;;;;;;;;;5053023;28;20037;-71
2023/09/13 04:40:26;;;;;;;2.92;1.92;;;;;;;;;;5052272;28;20053;-71
2023/09/13 04:43:15;;;;;;;2.90;2.20;;;;;;;;;;5052457;28;20106;-71
2023/09/13 04:45:42;;;;;;;3.42;1.92;;;;;;;;;;5052488;28;20072;-71
2023/09/13 04:48:09;;;;;;;8.50;2.17;;;;;;;;;;5052616;28;20067;-70
2023/09/13 04:50:36;;;;;;;3.28;1.95;;;;;;;;;;5052266;28;20181;-71
2023/09/13 04:53:03;;;;;;;3.17;2.30;;;;;;;;;;5052495;28;20060;-71
2023/09/13 04:55:30;;;;;;;3.28;2.20;;;;;;;;;;5052283;28;20095;-72
2023/09/13 04:57:57;;;;;;;7.13;2.42;;;;;;;;;;5052330;28;20607;-70
2023/09/13 05:00:26;;;;;;;3.17;1.88;;;;;;;;;;5051987;28;20268;-71
2023/09/13 05:02:54;;;;;;;4.00;1.97;;;;;;;;;;5052391;28;20412;-72
2023/09/13 05:05:21;;;;;;;5.60;2.47;;;;;;;;;;5051808;28;20316;-72
2023/09/13 05:07:47;;;;;;;5.78;2.35;;;;;;;;;;5052238;28;20037;-70
2023/09/13 05:10:14;;;;;;;4.00;2.33;;;;;;;;;;5051920;28;20045;-72
2023/09/13 05:12:41;;;;;;;5.38;2.50;;;;;;;;;;5052213;28;20103;-72
2023/09/13 05:15:08;;;;;;;3.55;2.17;;;;;;;;;;5052000;28;20041;-70
2023/09/13 05:17:35;;;;;;;7.35;2.60;;;;;;;;;;5051772;28;20047;-70
2023/09/13 05:20:02;;;;;;;4.63;2.25;;;;;;;;;;5051476;28;20223;-70
2023/09/13 05:22:29;;;;;;;5.05;2.15;;;;;;;;;;5051986;28;20052;-70
2023/09/13 05:24:56;;;;;;;5.28;2.45;;;;;;;;;;5051531;28;20124;-71
2023/09/13 05:27:22;;;;;;;4.40;2.10;;;;;;;;;;5050999;28;20563;-71
2023/09/13 05:29:49;;;;;;;5.88;2.85;;;;;;;;;;5050918;28;20350;-74
2023/09/13 05:32:16;;;;;;;4.13;2.33;;;;;;;;;;5051923;28;20064;-71
2023/09/13 05:34:43;;;;;;;5.40;2.50;;;;;;;;;;5051100;28;20052;-71
2023/09/13 05:37:09;;;;;;;3.45;2.22;;;;;;;;;;5051792;28;20048;-71
2023/09/13 05:39:36;;;;;;;5.45;2.25;;;;;;;;;;5051062;28;20088;-70
2023/09/13 05:42:03;;;;;;;3.50;2.20;;;;;;;;;;5051432;28;20056;-71
2023/09/13 05:44:33;;;;;;;4.28;2.20;;;;;;;;;;5051043;28;20045;-71
2023/09/13 05:46:59;;;;;;;3.90;2.15;;;;;;;;;;5051388;28;20049;-71
2023/09/13 05:49:26;;;;;;;3.38;1.90;;;;;;;;;;5050860;28;20056;-70
2023/09/13 05:51:56;;;;;;;6.83;2.50;;;;;;;;;;5051460;28;20088;-71
2023/09/13 05:54:23;;;;;;;4.30;2.47;;;;;;;;;;5050717;28;20053;-70
2023/09/13 05:56:55;;;;;;;3.25;2.10;;;;;;;;;;5051310;28;20079;-70
2023/09/13 05:59:22;;;;;;;3.83;1.83;;;;;;;;;;5050930;28;20048;-71
2023/09/13 06:01:50;;;;;;;7.60;2.25;;;;;;;;;;5051123;28;20410;-71
2023/09/13 06:04:16;;;;;;;2.85;1.95;;;;;;;;;;5050870;28;20041;-72
2023/09/13 06:06:43;;;;;;;5.22;2.15;;;;;;;;;;5049594;28;20053;-71
2023/09/13 06:09:10;;;;;;;3.35;1.80;;;;;;;;;;5051031;28;20056;-70
2023/09/13 06:11:37;;;;;;;3.63;1.80;;;;;;;;;;5050735;28;20049;-71
2023/09/13 06:14:06;;;;;;;3.00;1.98;;;;;;;;;;5050791;28;20049;-70
2023/09/13 06:16:36;;;;;;;4.18;1.95;;;;;;;;;;5050558;28;20056;-69
2023/09/13 06:19:03;;;;;;;5.35;2.13;;;;;;;;;;5050968;28;20045;-72
2023/09/13 06:21:30;;;;;;;2.55;1.75;;;;;;;;;;5050785;28;20052;-71
2023/09/13 06:23:57;;;;;;;4.25;1.88;;;;;;;;;;5050769;28;20056;-72
2023/09/13 06:26:23;;;;;;;3.13;1.67;;;;;;;;;;5050297;28;20041;-71
2023/09/13 06:28:50;;;;;;;2.05;1.63;;;;;;;;;;5050743;28;20045;-71
2023/09/13 06:31:17;;;;;;;6.10;2.03;;;;;;;;;;5050246;28;20053;-71
2023/09/13 06:33:59;;;;;;;5.75;1.90;;;;;;;;;;5050606;28;20067;-71
2023/09/13 06:36:48;;;;;;;3.30;1.75;;;;;;;;;;5050310;28;20137;-71
2023/09/13 06:39:18;;;;;;;4.18;2.17;;;;;;;;;;5050387;28;20093;-71
2023/09/13 06:41:44;;;;;;;3.00;1.55;;;;;;;;;;5065575;28;20157;-70
2023/09/13 06:44:11;;;;;;;6.70;1.85;;;;;;;;;;5050448;28;20049;-70
2023/09/13 06:46:42;;;;;;;3.22;1.88;;;;;;;;;;5050155;28;20098;-70
2023/09/13 06:49:16;;;;;;;7.18;1.98;;;;;;;;;;5049941;28;20652;-70
2023/09/13 06:51:43;;;;;;;3.25;1.80;;;;;;;;;;5049665;28;20049;-71
2023/09/13 06:54:18;;;;;;;3.08;1.65;;;;;;;;;;5049644;28;20059;-72
2023/09/13 06:56:47;;;;;;;3.22;1.92;;;;;;;;;;5050097;28;20124;-71
2023/09/13 06:59:19;;;;;;;2.83;1.90;;;;;;;;;;5050283;28;20049;-71
2023/09/13 07:01:47;;;;;;;4.68;1.98;;;;;;;;;;5049766;28;20049;-72
2023/09/13 07:04:19;;;;;;;2.08;1.58;;;;;;;;;;5050267;28;20049;-74
2023/09/13 07:06:58;;;;;;;3.17;1.73;;;;;;;;;;5049854;28;20045;-74
2023/09/13 07:09:24;;;;;;;3.40;1.95;;;;;;;;;;5049714;28;20051;-74
2023/09/13 07:11:51;;;;;;;5.15;1.60;;;;;;;;;;5049448;28;20064;-73
2023/09/13 07:14:18;;;;;;;2.85;1.83;;;;;;;;;;5049851;28;20110;-72
2023/09/13 07:16:44;;;;;;;4.82;1.77;;;;;;;;;;5049552;28;20535;-71
2023/09/13 07:19:11;;;;;;;5.78;1.80;;;;;;;;;;5049855;28;20102;-70
2023/09/13 07:21:38;;;;;;;2.20;1.50;;;;;;;;;;5049505;28;20056;-72
2023/09/13 07:24:05;;;;;;;3.17;1.77;;;;;;;;;;5049496;28;20067;-70
2023/09/13 07:26:31;;;;;;;5.03;1.85;;;;;;;;;;5049245;28;20523;-72
2023/09/13 07:28:58;;;;;;;4.80;1.58;;;;;;;;;;5049837;28;20053;-73
2023/09/13 07:31:25;;;;;;;2.83;1.60;;;;;;;;;;5049223;28;20052;-71
2023/09/13 07:33:54;;;;;;;2.58;1.77;;;;;;;;;;5049724;28;20041;-72
2023/09/13 07:36:23;;;;;;;3.53;1.73;;;;;;;;;;5049135;28;20606;-74
2023/09/13 07:38:49;;;;;;;2.90;1.80;;;;;;;;;;5049398;28;20053;-73
2023/09/13 07:41:17;;;;;;;4.05;1.83;;;;;;;;;;5049210;28;20048;-71
2023/09/13 07:43:43;;;;;;;3.15;1.65;;;;;;;;;;5048933;28;20497;-72
2023/09/13 07:46:10;;;;;;;2.20;1.52;;;;;;;;;;5049124;28;20132;-72
2023/09/13 07:48:37;;;;;;;3.85;1.65;;;;;;;;;;5049043;28;20509;-71
2023/09/13 07:51:04;;;;;;;2.83;1.48;;;;;;;;;;5047355;28;20076;-71
2023/09/13 07:53:31;;;;;;;2.83;1.30;;;;;;;;;;5047925;28;20041;-70
2023/09/13 07:55:59;;;;;;;2.00;1.40;;;;;;;;;;5049324;28;20110;-73
2023/09/13 07:58:26;;;;;;;3.42;1.40;;;;;;;;;;5049243;28;20049;-71
2023/09/13 08:00:53;;;;;;;4.25;1.50;;;;;;;;;;5049094;28;20056;-73
2023/09/13 08:03:20;;;;;;;3.67;1.60;;;;;;;;;;5049195;28;20049;-71
2023/09/13 08:05:47;;;;;;;3.95;1.20;;;;;;;;;;5049230;28;20049;-72
2023/09/13 08:08:22;;;;;;;4.00;1.42;;;;;;;;;;5049116;28;20056;-74
2023/09/13 08:10:50;;;;;;;2.92;1.23;;;;;;;;;;5048878;28;20124;-72
2023/09/13 08:13:22;;;;;;;1.95;1.17;;;;;;;;;;5049383;28;20049;-71
2023/09/13 08:15:50;;;;;;;2.35;1.30;;;;;;;;;;5048876;28;20706;-74
2023/09/13 08:18:17;;;;;;;2.38;1.30;;;;;;;;;;5048702;28;20045;-71
2023/09/13 08:20:44;;;;;;;3.28;1.40;;;;;;;;;;5048558;28;20098;-72
2023/09/13 08:23:11;;;;;;;2.17;1.23;;;;;;;;;;5048641;28;20045;-72
2023/09/13 08:25:38;;;;;;;1.95;1.30;;;;;;;;;;5049180;28;20134;-72
2023/09/13 08:28:05;;;;;;;5.25;1.48;;;;;;;;;;5049219;28;20041;-72
2023/09/13 08:30:32;;;;;;;4.05;1.20;;;;;;;;;;5048819;28;20052;-70
2023/09/13 08:32:59;;;;;;;2.97;1.30;;;;;;;;;;5048588;28;20049;-70
2023/09/13 08:35:26;;;;;;;1.77;1.20;;;;;;;;;;5049007;28;20489;-71
2023/09/13 08:37:52;;;;;;;2.38;1.30;;;;;;;;;;5048485;28;20051;-71
2023/09/13 08:40:19;;;;;;;3.80;1.45;;;;;;;;;;5048985;28;20049;-70
2023/09/13 08:42:46;;;;;;;1.00;0.85;;;;;;;;;;5048401;28;20098;-71
2023/09/13 08:45:13;;;;;;;1.98;0.90;;;;;;;;;;5048783;28;20455;-71
2023/09/13 08:47:44;;;;;;;3.83;1.10;;;;;;;;;;5048873;28;20041;-71
2023/09/13 08:50:28;;;;;;;1.20;0.90;;;;;;;;;;5048512;28;20091;-72
2023/09/13 08:52:59;;;;;;;1.85;1.05;;;;;;;;;;5047833;28;20110;-71
2023/09/13 08:55:26;;;;;;;1.67;0.93;;;;;;;;;;5048678;28;20044;-70
2023/09/13 08:57:55;;;;;;;4.30;1.10;;;;;;;;;;5048685;28;20059;-71
2023/09/13 09:00:26;;;;;;;3.20;1.13;;;;;;;;;;5047710;28;20053;-71
2023/09/13 09:02:55;;;;;;;2.25;1.17;;;;;;;;;;5048701;28;20049;-70
2023/09/13 09:05:26;;;;;;;3.28;1.33;;;;;;;;;;5052533;28;20045;-71
2023/09/13 09:07:55;;;;;;;3.25;1.38;;;;;;;;;;5051760;28;20045;-70
2023/09/13 09:10:23;;;;;;;4.90;1.30;;;;;;;;;;5051920;28;20055;-71
2023/09/13 09:12:52;;;;;;;1.48;1.10;;;;;;;;;;5051681;28;20056;-70
2023/09/13 09:15:20;;;;;;;1.35;1.00;;;;;;;;;;5052304;28;20052;-72
2023/09/13 09:17:48;;;;;;;2.33;1.20;;;;;;;;;;5052083;28;20045;-70
2023/09/13 09:20:15;;;;;;;3.53;1.00;;;;;;;;;;5052062;28;20095;-70
2023/09/13 09:22:42;;;;;;;2.30;1.17;;;;;;;;;;5051931;28;20051;-71
2023/09/13 09:25:10;;;;;;;3.03;1.30;;;;;;;;;;5052182;28;20386;-70
2023/09/13 09:27:41;;;;;;;2.70;0.90;;;;;;;;;;5051486;28;20053;-71
2023/09/13 09:30:14;;;;;;;2.85;1.00;;;;;;;;;;5051521;28;20045;-71
2023/09/13 09:32:43;;;;;;;1.75;1.00;;;;;;;;;;5051436;28;20053;-70
2023/09/13 09:35:10;;;;;;;4.47;1.10;;;;;;;;;;5051743;28;20045;-70
2023/09/13 09:37:37;;;;;;;1.70;1.10;;;;;;;;;;5051372;28;20053;-70
2023/09/13 09:40:10;;;;;;;2.38;1.10;;;;;;;;;;5051679;28;20068;-71
2023/09/13 09:42:37;;;;;;;1.88;1.10;;;;;;;;;;5051262;28;20053;-70
2023/09/13 09:45:04;;;;;;;2.83;1.00;;;;;;;;;;5051789;28;20045;-70
2023/09/13 09:47:36;;;;;;;2.20;1.10;;;;;;;;;;5051040;28;20436;-70
2023/09/13 09:50:04;;;;;;;2.55;1.20;;;;;;;;;;5050956;28;20071;-71
2023/09/13 09:52:31;;;;;;;1.77;1.00;;;;;;;;;;5050866;28;20504;-70
2023/09/13 09:54:57;;;;;;;2.88;0.98;;;;;;;;;;5051365;28;20049;-70
2023/09/13 09:57:26;;;;;;;1.65;1.02;;;;;;;;;;5050924;28;20049;-71
2023/09/13 09:59:52;;;;;;;2.72;1.10;;;;;;;;;;5051172;28;20551;-70
2023/09/13 10:02:26;;;;;;;1.45;1.00;;;;;;;;;;5050900;28;20045;-73
2023/09/13 10:04:53;;;;;;;2.60;1.40;;;;;;;;;;5051213;28;20049;-71
2023/09/13 10:07:20;;;;;;;2.03;1.13;;;;;;;;;;5065778;28;20094;-70
2023/09/13 10:09:47;;;;;;;1.85;1.00;;;;;;;;;;5050967;28;20055;-70
2023/09/13 10:12:15;;;;;;;2.42;1.00;;;;;;;;;;5050824;28;20148;-70
2023/09/13 10:14:44;;;;;;;2.65;1.10;;;;;;;;;;5050762;28;20052;-73
2023/09/13 10:17:11;;;;;;;1.60;0.73;;;;;;;;;;5051041;28;20052;-73
2023/09/13 10:19:41;;;;;;;2.67;0.98;;;;;;;;;;5050494;28;20048;-71
2023/09/13 10:22:13;;;;;;;2.77;1.10;;;;;;;;;;5049605;28;20049;-71
2023/09/13 10:24:47;;;;;;;2.85;0.88;;;;;;;;;;5050307;28;20045;-71
2023/09/13 10:27:17;;;;;;;1.52;0.90;;;;;;;;;;5050547;28;20084;-71
2023/09/13 10:30:00;;;;;;;1.95;1.00;;;;;;;;;;5050506;28;20132;-72
2023/09/13 10:32:47;;;;;;;3.22;1.00;;;;;;;;;;5048972;28;20471;-71
2023/09/13 10:35:18;;;;;;;1.88;0.93;;;;;;;;;;5065020;28;20044;-71
2023/09/13 10:37:59;;;;;;;1.88;0.98;;;;;;;;;;5050240;28;20045;-71
2023/09/13 10:40:37;;;;;;;2.35;1.00;;;;;;;;;;5050144;28;20117;-71
2023/09/13 10:43:04;;;;;;;4.10;1.02;;;;;;;;;;5050036;28;20106;-70
2023/09/13 10:45:31;;;;;;;2.20;1.00;;;;;;;;;;5050477;28;20049;-70
2023/09/13 10:47:59;;;;;;;2.05;0.90;;;;;;;;;;5050338;28;20144;-70
2023/09/13 10:50:27;;;;;;;2.63;1.00;;;;;;;;;;5049878;28;20052;-72
2023/09/13 10:52:55;;;;;;;1.73;0.90;;;;;;;;;;5049856;28;20102;-73
2023/09/13 10:55:24;;;;;;;2.17;1.10;;;;;;;;;;5049870;28;20049;-71
2023/09/13 10:57:51;;;;;;;1.60;0.95;;;;;;;;;;5049946;28;20060;-71
2023/09/13 11:00:19;;;;;;;3.10;0.90;;;;;;;;;;5049696;28;20496;-70
2023/09/13 11:02:46;;;;;;;3.85;1.20;;;;;;;;;;5049664;28;20084;-70
2023/09/13 11:05:16;;;;;;;3.22;1.10;;;;;;;;;;5050162;28;20049;-72
2023/09/13 11:07:46;;;;;;;3.60;1.20;;;;;;;;;;5049594;28;20571;-71
2023/09/13 11:10:15;;;;;;;1.67;1.10;;;;;;;;;;5049715;28;20084;-71
2023/09/13 11:12:51;;;;;;;3.55;0.98;;;;;;;;;;5049759;28;20055;-71
2023/09/13 11:15:21;;;;;;;2.92;1.20;;;;;;;;;;5050047;28;20049;-71
2023/09/13 11:17:48;;;;;;;2.63;1.03;;;;;;;;;;5049418;28;20560;-71
2023/09/13 11:20:21;;;;;;;2.22;1.20;;;;;;;;;;5049592;28;20102;-70
2023/09/13 11:23:12;;;;;;;4.25;1.00;;;;;;;;;;5049739;28;20119;-71
2023/09/13 11:25:47;;;;;;;2.33;1.10;;;;;;;;;;5049119;28;20448;-71
2023/09/13 11:28:37;;;;;;;1.60;0.98;;;;;;;;;;5049518;28;20052;-74
2023/09/13 11:31:06;;;;;;;3.20;1.05;;;;;;;;;;5049682;28;20045;-71
2023/09/13 11:33:57;;;;;;;1.73;0.80;;;;;;;;;;5049086;28;20516;-70
2023/09/13 11:36:25;;;;;;;;;;;;;;;;;;5049835;28;20056;-70
2023/09/13 11:38:55;;;;;;;1.73;1.20;;;;;;;;;;5049133;28;19920;-70
2023/09/13 11:41:22;;;;;;;1.55;0.90;;;;;;;;;;5049421;28;20048;-71
2023/09/13 11:43:50;;;;;;;2.30;1.10;;;;;;;;;;5049456;28;20049;-70
2023/09/13 11:46:30;;;;;;;1.33;0.80;;;;;;;;;;5049446;28;20049;-71
2023/09/13 11:48:59;;;;;;;2.28;1.00;;;;;;;;;;5049026;28;20044;-70
2023/09/13 11:51:32;;;;;;;1.50;0.90;;;;;;;;;;5049174;28;20059;-71
2023/09/13 11:54:20;;;;;;;1.10;1.00;;;;;;;;;;5048918;28;20041;-70
2023/09/13 11:56:51;;;;;;;3.67;1.13;;;;;;;;;;5049171;28;20113;-71
2023/09/13 11:59:30;;;;;;;3.67;1.00;;;;;;;;;;5049149;28;20061;-71
2023/09/13 12:01:57;;;;;;;1.13;0.82;;;;;;;;;;5049447;28;20573;-71
2023/09/13 12:04:28;;;;;;;1.70;0.88;;;;;;;;;;5048776;28;20416;-74
2023/09/13 12:06:58;;;;;;;1.77;1.10;;;;;;;;;;5049261;28;20400;-74
2023/09/13 12:09:29;;;;;;;1.52;1.00;;;;;;;;;;5048496;28;20063;-70
2023/09/13 12:12:00;;;;;;;2.47;0.93;;;;;;;;;;5048621;28;20053;-73
2023/09/13 12:14:35;;;;;;;3.63;1.00;;;;;;;;;;5048960;28;20041;-73
2023/09/13 12:17:36;;;;;;;2.50;1.15;;;;;;;;;;5048915;28;20059;-74
2023/09/13 12:20:10;;;;;;;4.03;0.98;;;;;;;;;;5048590;28;20049;-73
2023/09/13 12:22:40;;;;;;;2.53;1.10;;;;;;;;;;5049192;28;20041;-73
2023/09/13 12:25:12;;;;;;;1.77;1.15;;;;;;;;;;5048752;28;20628;-72
2023/09/13 12:27:40;;;;;;;4.18;0.80;;;;;;;;;;5049017;28;20056;-73
2023/09/13 12:30:14;;;;;;;1.30;0.90;;;;;;;;;;5048288;28;20563;-71
2023/09/13 12:32:43;;;;;;;4.05;1.10;;;;;;;;;;5048959;28;20096;-71
2023/09/13 12:35:11;;;;;;;7.00;0.90;;;;;;;;;;5048746;28;20056;-71
2023/09/13 12:37:38;;;;;;;2.13;1.20;;;;;;;;;;5048877;28;20041;-70
2023/09/13 12:40:14;;;;;;;2.28;0.90;;;;;;;;;;5052803;28;20044;-69
2023/09/13 12:42:42;;;;;;;1.90;0.82;;;;;;;;;;5052654;28;20052;-71
2023/09/13 12:45:09;;;;;;;1.42;0.80;;;;;;;;;;5052282;28;20045;-70
2023/09/13 12:47:37;;;;;;;2.47;0.80;;;;;;;;;;5052373;28;20055;-70
2023/09/13 12:50:06;;;;;;;1.92;0.88;;;;;;;;;;5051817;28;20088;-71
2023/09/13 12:52:53;;;;;;;2.20;0.88;;;;;;;;;;5052314;28;20061;-72
2023/09/13 12:55:24;;;;;;;2.05;0.70;;;;;;;;;;5052058;28;20048;-73
2023/09/13 12:57:52;;;;;;;1.40;0.80;;;;;;;;;;5052303;28;20045;-72
2023/09/13 13:00:19;;;;;;;1.08;0.80;;;;;;;;;;5051768;28;20488;-71
2023/09/13 13:02:53;;;;;;;1.50;0.90;;;;;;;;;;5052119;28;20080;-70
2023/09/13 13:05:20;;;;;;;2.50;0.90;;;;;;;;;;5051749;28;20128;-73
2023/09/13 13:07:47;;;;;;;1.13;0.70;;;;;;;;;;5052003;28;20045;-71
2023/09/13 13:10:28;;;;;;;2.85;1.00;;;;;;;;;;5051600;28;20045;-73
2023/09/13 13:12:55;;;;;;;2.90;0.88;;;;;;;;;;5052142;28;20080;-71
2023/09/13 13:15:32;;;;;;;1.17;0.80;;;;;;;;;;5051624;28;20055;-71
2023/09/13 13:18:00;;;;;;;2.80;0.90;;;;;;;;;;5052180;28;20103;-71
2023/09/13 13:20:27;;;;;;;2.83;0.80;;;;;;;;;;5051618;28;20041;-71
2023/09/13 13:22:54;;;;;;;2.03;0.88;;;;;;;;;;5051570;28;20493;-71
2023/09/13 13:25:21;;;;;;;3.33;0.93;;;;;;;;;;5051390;28;20124;-72
2023/09/13 13:27:49;;;;;;;1.52;0.73;;;;;;;;;;5052138;28;20159;-72
2023/09/13 13:30:15;;;;;;;2.08;0.70;;;;;;;;;;5051414;28;20144;-71
2023/09/13 13:32:42;;;;;;;3.65;0.88;;;;;;;;;;5051825;28;20200;-71
2023/09/13 13:35:09;;;;;;;1.30;0.80;;;;;;;;;;5051748;28;20045;-69
2023/09/13 13:37:36;;;;;;;1.63;0.88;;;;;;;;;;5051275;28;20516;-72
2023/09/13 13:40:03;;;;;;;3.05;0.82;;;;;;;;;;5051176;28;20544;-74
2023/09/13 13:42:29;;;;;;;1.05;0.70;;;;;;;;;;5051533;28;20667;-72
2023/09/13 13:44:56;;;;;;;3.00;0.77;;;;;;;;;;5051475;28;20045;-74
2023/09/13 13:47:23;;;;;;;2.20;0.75;;;;;;;;;;5051646;28;20045;-71
2023/09/13 13:49:49;;;;;;;2.95;0.90;;;;;;;;;;5050323;28;20776;-71
2023/09/13 13:52:16;;;;;;;2.03;0.70;;;;;;;;;;5051215;28;20045;-70
2023/09/13 13:54:43;;;;;;;2.03;0.85;;;;;;;;;;5051008;28;20509;-72
2023/09/13 13:57:11;;;;;;;0.60;0.60;;;;;;;;;;5051069;28;20519;-71
2023/09/13 13:59:39;;;;;;;1.30;0.80;;;;;;;;;;5051194;28;20082;-72
2023/09/13 14:02:06;;;;;;;2.88;0.80;;;;;;;;;;5051127;28;20049;-73
2023/09/13 14:04:32;;;;;;;1.77;0.90;;;;;;;;;;5051044;28;20520;-71
2023/09/13 14:06:59;;;;;;;2.60;1.00;;;;;;;;;;5051135;28;20132;-71
2023/09/13 14:09:26;;;;;;;1.70;0.88;;;;;;;;;;5050590;28;20045;-70
2023/09/13 14:11:53;;;;;;;3.25;1.00;;;;;;;;;;5050720;28;20492;-71
2023/09/13 14:14:19;;;;;;;1.70;0.88;;;;;;;;;;5050971;28;20166;-70
2023/09/13 14:16:47;;;;;;;2.30;0.98;;;;;;;;;;5050425;28;20523;-71
2023/09/13 14:19:15;;;;;;;1.33;0.80;;;;;;;;;;5050754;28;20049;-71
2023/09/13 14:21:42;;;;;;;1.30;0.90;;;;;;;;;;5050579;28;20174;-71
2023/09/13 14:24:09;;;;;;;3.08;0.70;;;;;;;;;;5050956;28;20081;-71
2023/09/13 14:26:35;;;;;;;2.08;0.95;;;;;;;;;;5050778;28;20088;-73
2023/09/13 14:29:02;;;;;;;1.20;0.82;;;;;;;;;;5050754;28;20048;-71
2023/09/13 14:31:36;;;;;;;1.33;0.70;;;;;;;;;;5050309;28;20049;-70
2023/09/13 14:34:05;;;;;;;2.53;0.98;;;;;;;;;;5050164;28;20053;-70
2023/09/13 14:36:32;;;;;;;1.20;0.70;;;;;;;;;;5050145;28;20068;-70
2023/09/13 14:38:59;;;;;;;2.28;1.00;;;;;;;;;;5050250;28;20284;-70
2023/09/13 14:41:28;;;;;;;1.38;1.00;;;;;;;;;;5050196;28;20135;-70
2023/09/13 14:43:55;;;;;;;3.60;1.08;;;;;;;;;;5050622;28;20136;-70
2023/09/13 14:46:22;;;;;;;1.70;0.82;;;;;;;;;;5050126;28;20082;-69
2023/09/13 14:48:52;;;;;;;1.27;0.70;;;;;;;;;;5050078;28;20083;-70
2023/09/13 14:51:19;;;;;;;0.90;0.70;;;;;;;;;;5049667;28;20535;-70
2023/09/13 14:53:46;;;;;;;4.95;1.10;;;;;;;;;;5050228;28;20045;-70
2023/09/13 14:56:13;;;;;;;1.10;0.80;;;;;;;;;;5049917;28;20439;-71